sensor_id;sensor_type;location;lat;lon;timestamp;temperature;humidity
5059;DHT22;2548;52.050;11.036;2023-07-30T00:02:27;16.10;99.90
5059;DHT22;2548;52.050;11.036;2023-07-30T00:04:54;16.10;99.90
5059;DHT22;2548;52.050;11.036;2023-07-30T00:07:22;16.00;99.90
5059;DHT22;2548;52.050;11.036;2023-07-30T00:09:49;16.10;99.90
5059;DHT22;2548;52.050;11.036;2023-07-30T00:12:16;16.10;99.90
5059;DHT22;2548;52.050;11.036;2023-07-30T00:14:44;16.10;99.90
5059;DHT22;2548;52.050;11.036;2023-07-30T00:17:11;16.10;99.90
5059;DHT22;2548;52.050;11.036;2023-07-30T00:19:40;16.10;99.90
5059;DHT22;2548;52.050;11.036;2023-07-30T00:22:07;16.10;99.90
5059;DHT22;2548;52.050;11.036;2023-07-30T00:24:35;16.10;99.90
5059;DHT22;2548;52.050;11.036;2023-07-30T00:27:03;16.00;99.90
5059;DHT22;2548;52.050;11.036;2023-07-30T00:29:30;16.00;99.90
5059;DHT22;2548;52.050;11.036;2023-07-30T00:31:58;16.00;99.90
5059;DHT22;2548;52.050;11.036;2023-07-30T00:34:26;16.00;99.90
5059;DHT22;2548;52.050;11.036;2023-07-30T00:36:55;15.90;99.90
5059;DHT22;2548;52.050;11.036;2023-07-30T00:39:22;15.90;99.90
5059;DHT22;2548;52.050;11.036;2023-07-30T00:41:50;15.90;99.90
5059;DHT22;2548;52.050;11.036;2023-07-30T00:44:17;15.90;99.90
5059;DHT22;2548;52.050;11.036;2023-07-30T00:46:45;15.80;99.90
5059;DHT22;2548;52.050;11.036;2023-07-30T00:49:12;15.80;99.90
5059;DHT22;2548;52.050;11.036;2023-07-30T00:51:41;15.70;99.90
5059;DHT22;2548;52.050;11.036;2023-07-30T00:54:11;15.60;99.90
5059;DHT22;2548;52.050;11.036;2023-07-30T00:56:40;15.50;99.90
5059;DHT22;2548;52.050;11.036;2023-07-30T00:59:13;15.40;99.90
5059;DHT22;2548;52.050;11.036;2023-07-30T01:01:42;15.40;99.90
5059;DHT22;2548;52.050;11.036;2023-07-30T01:04:10;15.40;99.90
5059;DHT22;2548;52.050;11.036;2023-07-30T01:06:37;15.40;99.90
5059;DHT22;2548;52.050;11.036;2023-07-30T01:09:05;15.30;99.90
5059;DHT22;2548;52.050;11.036;2023-07-30T01:11:34;15.30;99.90
5059;DHT22;2548;52.050;11.036;2023-07-30T01:14:03;15.30;99.90
5059;DHT22;2548;52.050;11.036;2023-07-30T01:16:31;15.30;99.90
5059;DHT22;2548;52.050;11.036;2023-07-30T01:18:58;15.30;99.90
5059;DHT22;2548;52.050;11.036;2023-07-30T01:21:32;15.30;99.90
5059;DHT22;2548;52.050;11.036;2023-07-30T01:24:00;15.30;99.90
5059;DHT22;2548;52.050;11.036;2023-07-30T01:26:32;15.40;99.90
5059;DHT22;2548;52.050;11.036;2023-07-30T01:29:01;15.40;99.90
5059;DHT22;2548;52.050;11.036;2023-07-30T01:31:31;15.50;99.90
5059;DHT22;2548;52.050;11.036;2023-07-30T01:34:02;15.50;99.90
5059;DHT22;2548;52.050;11.036;2023-07-30T01:36:32;15.50;99.90
5059;DHT22;2548;52.050;11.036;2023-07-30T01:39:00;15.40;99.90
5059;DHT22;2548;52.050;11.036;2023-07-30T01:41:28;15.40;99.90
5059;DHT22;2548;52.050;11.036;2023-07-30T01:43:56;15.40;99.90
5059;DHT22;2548;52.050;11.036;2023-07-30T01:46:23;15.40;99.90
5059;DHT22;2548;52.050;11.036;2023-07-30T01:48:51;15.40;99.90
5059;DHT22;2548;52.050;11.036;2023-07-30T01:51:18;15.30;99.90
5059;DHT22;2548;52.050;11.036;2023-07-30T01:53:47;15.30;99.90
5059;DHT22;2548;52.050;11.036;2023-07-30T01:56:14;15.20;99.90
5059;DHT22;2548;52.050;11.036;2023-07-30T01:58:42;15.20;99.90
5059;DHT22;2548;52.050;11.036;2023-07-30T02:01:09;15.20;99.90
5059;DHT22;2548;52.050;11.036;2023-07-30T02:03:37;15.20;99.90
5059;DHT22;2548;52.050;11.036;2023-07-30T02:06:04;15.20;99.90
5059;DHT22;2548;52.050;11.036;2023-07-30T02:08:32;15.20;99.90
5059;DHT22;2548;52.050;11.036;2023-07-30T02:11:01;15.20;99.90
5059;DHT22;2548;52.050;11.036;2023-07-30T02:13:29;15.10;99.90
5059;DHT22;2548;52.050;11.036;2023-07-30T02:15:56;15.10;99.90
5059;DHT22;2548;52.050;11.036;2023-07-30T02:18:23;15.00;99.90
5059;DHT22;2548;52.050;11.036;2023-07-30T02:20:51;15.00;99.90
5059;DHT22;2548;52.050;11.036;2023-07-30T02:23:18;15.00;99.90
5059;DHT22;2548;52.050;11.036;2023-07-30T02:25:46;14.90;99.90
5059;DHT22;2548;52.050;11.036;2023-07-30T02:28:15;14.90;99.90
5059;DHT22;2548;52.050;11.036;2023-07-30T02:30:42;14.90;99.90
5059;DHT22;2548;52.050;11.036;2023-07-30T02:33:10;14.90;99.90
5059;DHT22;2548;52.050;11.036;2023-07-30T02:35:37;15.00;99.90
5059;DHT22;2548;52.050;11.036;2023-07-30T02:38:04;15.00;99.90
5059;DHT22;2548;52.050;11.036;2023-07-30T02:40:32;15.00;99.90
5059;DHT22;2548;52.050;11.036;2023-07-30T02:42:59;15.10;99.90
5059;DHT22;2548;52.050;11.036;2023-07-30T02:45:29;15.10;99.90
5059;DHT22;2548;52.050;11.036;2023-07-30T02:47:56;15.20;99.90
5059;DHT22;2548;52.050;11.036;2023-07-30T02:50:24;15.10;99.90
5059;DHT22;2548;52.050;11.036;2023-07-30T02:52:51;15.00;99.90
5059;DHT22;2548;52.050;11.036;2023-07-30T02:55:19;14.90;99.90
5059;DHT22;2548;52.050;11.036;2023-07-30T02:57:46;14.90;99.90
5059;DHT22;2548;52.050;11.036;2023-07-30T03:00:14;14.90;99.90
5059;DHT22;2548;52.050;11.036;2023-07-30T03:02:42;14.80;99.90
5059;DHT22;2548;52.050;11.036;2023-07-30T03:05:10;14.70;99.90
5059;DHT22;2548;52.050;11.036;2023-07-30T03:07:38;14.70;99.90
5059;DHT22;2548;52.050;11.036;2023-07-30T03:10:06;14.80;99.90
5059;DHT22;2548;52.050;11.036;2023-07-30T03:12:33;14.80;99.90
5059;DHT22;2548;52.050;11.036;2023-07-30T03:15:01;14.80;99.90
5059;DHT22;2548;52.050;11.036;2023-07-30T03:17:28;14.80;99.90
5059;DHT22;2548;52.050;11.036;2023-07-30T03:19:57;14.70;99.90
5059;DHT22;2548;52.050;11.036;2023-07-30T03:22:24;14.70;99.90
5059;DHT22;2548;52.050;11.036;2023-07-30T03:24:52;14.70;99.90
5059;DHT22;2548;52.050;11.036;2023-07-30T03:27:19;14.60;99.90
5059;DHT22;2548;52.050;11.036;2023-07-30T03:29:48;14.60;99.90
5059;DHT22;2548;52.050;11.036;2023-07-30T03:32:15;14.60;99.90
5059;DHT22;2548;52.050;11.036;2023-07-30T03:34:43;14.70;99.90
5059;DHT22;2548;52.050;11.036;2023-07-30T03:37:10;14.70;99.90
5059;DHT22;2548;52.050;11.036;2023-07-30T03:39:38;14.70;99.90
5059;DHT22;2548;52.050;11.036;2023-07-30T03:42:06;14.70;99.90
5059;DHT22;2548;52.050;11.036;2023-07-30T03:44:35;14.80;99.90
5059;DHT22;2548;52.050;11.036;2023-07-30T03:47:03;14.90;99.90
5059;DHT22;2548;52.050;11.036;2023-07-30T03:49:30;15.00;99.90
5059;DHT22;2548;52.050;11.036;2023-07-30T03:51:58;15.00;99.90
5059;DHT22;2548;52.050;11.036;2023-07-30T03:54:28;15.00;99.90
5059;DHT22;2548;52.050;11.036;2023-07-30T03:56:55;14.90;99.90
5059;DHT22;2548;52.050;11.036;2023-07-30T03:59:22;14.90;99.90
5059;DHT22;2548;52.050;11.036;2023-07-30T04:01:50;14.80;99.90
5059;DHT22;2548;52.050;11.036;2023-07-30T04:04:17;14.90;99.90
5059;DHT22;2548;52.050;11.036;2023-07-30T04:06:45;14.90;99.90
5059;DHT22;2548;52.050;11.036;2023-07-30T04:09:12;14.90;99.90
5059;DHT22;2548;52.050;11.036;2023-07-30T04:11:41;15.00;99.90
5059;DHT22;2548;52.050;11.036;2023-07-30T04:14:09;15.10;99.90
5059;DHT22;2548;52.050;11.036;2023-07-30T04:16:37;15.20;99.90
5059;DHT22;2548;52.050;11.036;2023-07-30T04:19:04;15.30;99.90
5059;DHT22;2548;52.050;11.036;2023-07-30T04:21:32;15.40;99.90
5059;DHT22;2548;52.050;11.036;2023-07-30T04:23:59;15.50;99.90
5059;DHT22;2548;52.050;11.036;2023-07-30T04:26:28;15.60;99.90
5059;DHT22;2548;52.050;11.036;2023-07-30T04:28:56;15.70;99.90
5059;DHT22;2548;52.050;11.036;2023-07-30T04:31:24;15.80;99.90
5059;DHT22;2548;52.050;11.036;2023-07-30T04:33:51;15.90;99.90
5059;DHT22;2548;52.050;11.036;2023-07-30T04:36:19;16.00;99.90
5059;DHT22;2548;52.050;11.036;2023-07-30T04:38:48;16.20;99.90
5059;DHT22;2548;52.050;11.036;2023-07-30T04:41:17;16.30;99.90
5059;DHT22;2548;52.050;11.036;2023-07-30T04:43:48;16.30;99.90
5059;DHT22;2548;52.050;11.036;2023-07-30T04:46:17;16.30;99.90
5059;DHT22;2548;52.050;11.036;2023-07-30T04:48:44;16.50;99.90
5059;DHT22;2548;52.050;11.036;2023-07-30T04:51:14;16.50;99.90
5059;DHT22;2548;52.050;11.036;2023-07-30T04:53:41;16.50;99.90
5059;DHT22;2548;52.050;11.036;2023-07-30T04:56:09;16.60;99.90
5059;DHT22;2548;52.050;11.036;2023-07-30T04:58:36;16.60;99.90
5059;DHT22;2548;52.050;11.036;2023-07-30T05:01:04;16.60;99.90
5059;DHT22;2548;52.050;11.036;2023-07-30T05:03:32;16.60;99.90
5059;DHT22;2548;52.050;11.036;2023-07-30T05:06:00;16.60;99.90
5059;DHT22;2548;52.050;11.036;2023-07-30T05:08:27;16.60;99.90
5059;DHT22;2548;52.050;11.036;2023-07-30T05:10:55;16.70;99.90
5059;DHT22;2548;52.050;11.036;2023-07-30T05:13:22;16.70;99.90
5059;DHT22;2548;52.050;11.036;2023-07-30T05:15:50;16.80;99.90
5059;DHT22;2548;52.050;11.036;2023-07-30T05:18:17;16.80;99.90
5059;DHT22;2548;52.050;11.036;2023-07-30T05:20:47;16.90;99.90
5059;DHT22;2548;52.050;11.036;2023-07-30T05:23:14;17.00;99.90
5059;DHT22;2548;52.050;11.036;2023-07-30T05:25:42;17.10;99.90
5059;DHT22;2548;52.050;11.036;2023-07-30T05:28:09;17.10;99.90
5059;DHT22;2548;52.050;11.036;2023-07-30T05:30:36;17.20;99.90
5059;DHT22;2548;52.050;11.036;2023-07-30T05:33:04;17.30;99.90
5059;DHT22;2548;52.050;11.036;2023-07-30T05:35:31;17.40;99.90
5059;DHT22;2548;52.050;11.036;2023-07-30T05:38:00;17.50;99.90
5059;DHT22;2548;52.050;11.036;2023-07-30T05:40:28;17.50;99.90
5059;DHT22;2548;52.050;11.036;2023-07-30T05:42:55;17.60;99.90
5059;DHT22;2548;52.050;11.036;2023-07-30T05:45:23;17.60;99.90
5059;DHT22;2548;52.050;11.036;2023-07-30T05:47:50;17.60;99.90
5059;DHT22;2548;52.050;11.036;2023-07-30T05:50:18;17.70;99.90
5059;DHT22;2548;52.050;11.036;2023-07-30T05:52:45;17.80;99.90
5059;DHT22;2548;52.050;11.036;2023-07-30T05:55:14;17.80;99.90
5059;DHT22;2548;52.050;11.036;2023-07-30T05:57:41;17.90;99.90
5059;DHT22;2548;52.050;11.036;2023-07-30T06:00:09;18.00;99.90
5059;DHT22;2548;52.050;11.036;2023-07-30T06:02:40;18.00;99.90
5059;DHT22;2548;52.050;11.036;2023-07-30T06:05:08;18.10;99.90
5059;DHT22;2548;52.050;11.036;2023-07-30T06:07:35;18.30;99.90
5059;DHT22;2548;52.050;11.036;2023-07-30T06:10:03;18.30;99.90
5059;DHT22;2548;52.050;11.036;2023-07-30T06:12:32;18.40;99.90
5059;DHT22;2548;52.050;11.036;2023-07-30T06:14:59;18.50;99.90
5059;DHT22;2548;52.050;11.036;2023-07-30T06:17:27;18.60;99.90
5059;DHT22;2548;52.050;11.036;2023-07-30T06:19:54;18.60;99.90
5059;DHT22;2548;52.050;11.036;2023-07-30T06:22:22;18.70;99.90
5059;DHT22;2548;52.050;11.036;2023-07-30T06:24:49;18.80;99.90
5059;DHT22;2548;52.050;11.036;2023-07-30T06:27:17;18.80;99.90
5059;DHT22;2548;52.050;11.036;2023-07-30T06:29:45;18.90;99.90
5059;DHT22;2548;52.050;11.036;2023-07-30T06:32:13;19.00;99.90
5059;DHT22;2548;52.050;11.036;2023-07-30T06:34:40;19.00;99.90
5059;DHT22;2548;52.050;11.036;2023-07-30T06:37:08;19.10;99.90
5059;DHT22;2548;52.050;11.036;2023-07-30T06:39:35;19.10;99.90
5059;DHT22;2548;52.050;11.036;2023-07-30T06:42:03;19.20;99.90
5059;DHT22;2548;52.050;11.036;2023-07-30T06:44:30;19.20;99.90
5059;DHT22;2548;52.050;11.036;2023-07-30T06:46:59;19.20;99.90
5059;DHT22;2548;52.050;11.036;2023-07-30T06:49:27;19.20;99.90
5059;DHT22;2548;52.050;11.036;2023-07-30T06:51:54;19.20;99.90
5059;DHT22;2548;52.050;11.036;2023-07-30T06:54:22;19.20;99.90
5059;DHT22;2548;52.050;11.036;2023-07-30T06:56:49;19.30;99.90
5059;DHT22;2548;52.050;11.036;2023-07-30T06:59:16;19.40;99.90
5059;DHT22;2548;52.050;11.036;2023-07-30T07:01:44;19.50;99.90
5059;DHT22;2548;52.050;11.036;2023-07-30T07:04:13;19.60;99.90
5059;DHT22;2548;52.050;11.036;2023-07-30T07:06:41;19.60;99.90
5059;DHT22;2548;52.050;11.036;2023-07-30T07:09:08;19.60;99.90
5059;DHT22;2548;52.050;11.036;2023-07-30T07:11:36;19.70;99.90
5059;DHT22;2548;52.050;11.036;2023-07-30T07:14:03;19.60;99.90
5059;DHT22;2548;52.050;11.036;2023-07-30T07:16:31;19.50;99.90
5059;DHT22;2548;52.050;11.036;2023-07-30T07:18:58;19.50;99.90
5059;DHT22;2548;52.050;11.036;2023-07-30T07:21:27;19.60;99.90
5059;DHT22;2548;52.050;11.036;2023-07-30T07:23:54;19.80;99.90
5059;DHT22;2548;52.050;11.036;2023-07-30T07:26:22;19.90;99.90
5059;DHT22;2548;52.050;11.036;2023-07-30T07:28:50;20.10;99.90
5059;DHT22;2548;52.050;11.036;2023-07-30T07:31:17;20.20;99.90
5059;DHT22;2548;52.050;11.036;2023-07-30T07:33:45;20.30;99.90
5059;DHT22;2548;52.050;11.036;2023-07-30T07:36:12;20.30;99.90
5059;DHT22;2548;52.050;11.036;2023-07-30T07:38:42;20.40;99.90
5059;DHT22;2548;52.050;11.036;2023-07-30T07:41:14;20.50;99.90
5059;DHT22;2548;52.050;11.036;2023-07-30T07:43:42;20.40;99.90
5059;DHT22;2548;52.050;11.036;2023-07-30T07:46:09;20.50;99.90
5059;DHT22;2548;52.050;11.036;2023-07-30T07:48:40;20.60;99.90
5059;DHT22;2548;52.050;11.036;2023-07-30T07:51:08;20.70;99.90
5059;DHT22;2548;52.050;11.036;2023-07-30T07:53:36;20.80;99.90
5059;DHT22;2548;52.050;11.036;2023-07-30T07:56:06;20.80;99.90
5059;DHT22;2548;52.050;11.036;2023-07-30T07:58:33;20.80;99.90
5059;DHT22;2548;52.050;11.036;2023-07-30T08:01:02;20.90;99.90
5059;DHT22;2548;52.050;11.036;2023-07-30T08:03:29;21.00;99.90
5059;DHT22;2548;52.050;11.036;2023-07-30T08:05:57;21.00;99.90
5059;DHT22;2548;52.050;11.036;2023-07-30T08:08:25;21.00;99.90
5059;DHT22;2548;52.050;11.036;2023-07-30T08:10:53;21.10;99.90
5059;DHT22;2548;52.050;11.036;2023-07-30T08:13:22;21.20;99.90
5059;DHT22;2548;52.050;11.036;2023-07-30T08:15:49;21.20;99.90
5059;DHT22;2548;52.050;11.036;2023-07-30T08:18:17;21.30;99.90
5059;DHT22;2548;52.050;11.036;2023-07-30T08:20:44;21.40;99.90
5059;DHT22;2548;52.050;11.036;2023-07-30T08:23:12;21.50;99.90
5059;DHT22;2548;52.050;11.036;2023-07-30T08:25:39;21.60;99.90
5059;DHT22;2548;52.050;11.036;2023-07-30T08:28:06;21.60;99.90
5059;DHT22;2548;52.050;11.036;2023-07-30T08:30:35;21.50;99.90
5059;DHT22;2548;52.050;11.036;2023-07-30T08:33:03;21.50;99.90
5059;DHT22;2548;52.050;11.036;2023-07-30T08:35:30;21.60;99.90
5059;DHT22;2548;52.050;11.036;2023-07-30T08:37:58;21.80;99.90
5059;DHT22;2548;52.050;11.036;2023-07-30T08:40:25;21.80;99.90
5059;DHT22;2548;52.050;11.036;2023-07-30T08:42:53;21.90;99.90
5059;DHT22;2548;52.050;11.036;2023-07-30T08:45:21;22.00;99.90
5059;DHT22;2548;52.050;11.036;2023-07-30T08:47:49;22.00;99.90
5059;DHT22;2548;52.050;11.036;2023-07-30T08:50:17;22.00;99.90
5059;DHT22;2548;52.050;11.036;2023-07-30T08:52:45;22.00;99.90
5059;DHT22;2548;52.050;11.036;2023-07-30T08:55:13;22.00;99.90
5059;DHT22;2548;52.050;11.036;2023-07-30T08:57:42;22.10;99.90
5059;DHT22;2548;52.050;11.036;2023-07-30T09:00:12;22.00;99.90
5059;DHT22;2548;52.050;11.036;2023-07-30T09:02:44;21.90;99.90
5059;DHT22;2548;52.050;11.036;2023-07-30T09:05:16;21.70;99.90
5059;DHT22;2548;52.050;11.036;2023-07-30T09:07:43;21.80;99.90
5059;DHT22;2548;52.050;11.036;2023-07-30T09:10:10;21.60;99.90
5059;DHT22;2548;52.050;11.036;2023-07-30T09:12:38;21.60;99.90
5059;DHT22;2548;52.050;11.036;2023-07-30T09:15:07;21.60;99.90
5059;DHT22;2548;52.050;11.036;2023-07-30T09:17:35;21.80;99.90
5059;DHT22;2548;52.050;11.036;2023-07-30T09:20:04;21.90;99.90
5059;DHT22;2548;52.050;11.036;2023-07-30T09:22:34;22.00;99.90
5059;DHT22;2548;52.050;11.036;2023-07-30T09:25:06;22.20;99.90
5059;DHT22;2548;52.050;11.036;2023-07-30T09:27:33;22.40;99.90
5059;DHT22;2548;52.050;11.036;2023-07-30T09:30:02;22.60;99.90
5059;DHT22;2548;52.050;11.036;2023-07-30T09:32:32;22.70;99.90
5059;DHT22;2548;52.050;11.036;2023-07-30T09:35:04;22.80;99.90
5059;DHT22;2548;52.050;11.036;2023-07-30T09:37:36;22.80;99.90
5059;DHT22;2548;52.050;11.036;2023-07-30T09:40:05;22.90;99.90
5059;DHT22;2548;52.050;11.036;2023-07-30T09:42:34;22.80;99.90
5059;DHT22;2548;52.050;11.036;2023-07-30T09:45:06;22.70;99.90
5059;DHT22;2548;52.050;11.036;2023-07-30T09:47:36;22.60;99.90
5059;DHT22;2548;52.050;11.036;2023-07-30T09:50:05;22.60;99.90
5059;DHT22;2548;52.050;11.036;2023-07-30T09:52:34;22.60;99.90
5059;DHT22;2548;52.050;11.036;2023-07-30T09:55:02;22.60;99.90
5059;DHT22;2548;52.050;11.036;2023-07-30T09:57:33;22.70;99.90
5059;DHT22;2548;52.050;11.036;2023-07-30T10:00:01;22.70;99.90
5059;DHT22;2548;52.050;11.036;2023-07-30T10:02:30;22.80;99.90
5059;DHT22;2548;52.050;11.036;2023-07-30T10:05:00;23.00;99.90
5059;DHT22;2548;52.050;11.036;2023-07-30T10:07:30;23.20;99.90
5059;DHT22;2548;52.050;11.036;2023-07-30T10:10:00;23.10;99.90
5059;DHT22;2548;52.050;11.036;2023-07-30T10:12:32;23.10;99.90
5059;DHT22;2548;52.050;11.036;2023-07-30T10:15:00;23.10;99.90
5059;DHT22;2548;52.050;11.036;2023-07-30T10:17:28;23.00;99.90
5059;DHT22;2548;52.050;11.036;2023-07-30T10:19:55;22.90;99.90
5059;DHT22;2548;52.050;11.036;2023-07-30T10:22:24;22.90;99.90
5059;DHT22;2548;52.050;11.036;2023-07-30T10:24:59;22.90;99.90
5059;DHT22;2548;52.050;11.036;2023-07-30T10:27:36;22.90;99.90
5059;DHT22;2548;52.050;11.036;2023-07-30T10:30:11;23.10;99.90
5059;DHT22;2548;52.050;11.036;2023-07-30T10:32:40;23.10;99.90
5059;DHT22;2548;52.050;11.036;2023-07-30T10:35:08;23.10;99.90
5059;DHT22;2548;52.050;11.036;2023-07-30T10:37:35;23.00;99.90
5059;DHT22;2548;52.050;11.036;2023-07-30T10:40:17;23.00;99.90
5059;DHT22;2548;52.050;11.036;2023-07-30T10:42:45;23.00;99.90
5059;DHT22;2548;52.050;11.036;2023-07-30T10:45:12;22.90;99.90
5059;DHT22;2548;52.050;11.036;2023-07-30T10:47:41;22.80;99.90
5059;DHT22;2548;52.050;11.036;2023-07-30T10:50:09;22.60;99.90
5059;DHT22;2548;52.050;11.036;2023-07-30T10:52:39;22.40;99.90
5059;DHT22;2548;52.050;11.036;2023-07-30T10:55:07;22.20;99.90
5059;DHT22;2548;52.050;11.036;2023-07-30T10:57:36;22.10;99.90
5059;DHT22;2548;52.050;11.036;2023-07-30T11:00:07;21.90;99.90
5059;DHT22;2548;52.050;11.036;2023-07-30T11:02:34;21.80;99.90
5059;DHT22;2548;52.050;11.036;2023-07-30T11:05:12;21.70;99.90
5059;DHT22;2548;52.050;11.036;2023-07-30T11:07:39;21.50;99.90
5059;DHT22;2548;52.050;11.036;2023-07-30T11:10:16;21.20;99.90
5059;DHT22;2548;52.050;11.036;2023-07-30T11:12:44;20.70;99.90
5059;DHT22;2548;52.050;11.036;2023-07-30T11:15:13;20.30;99.90
5059;DHT22;2548;52.050;11.036;2023-07-30T11:17:40;20.10;99.90
5059;DHT22;2548;52.050;11.036;2023-07-30T11:20:12;19.90;99.90
5059;DHT22;2548;52.050;11.036;2023-07-30T11:22:48;19.70;99.90
5059;DHT22;2548;52.050;11.036;2023-07-30T11:25:16;19.60;99.90
5059;DHT22;2548;52.050;11.036;2023-07-30T11:27:49;19.50;99.90
5059;DHT22;2548;52.050;11.036;2023-07-30T11:30:17;19.40;99.90
5059;DHT22;2548;52.050;11.036;2023-07-30T11:32:45;19.40;99.90
5059;DHT22;2548;52.050;11.036;2023-07-30T11:35:14;19.40;99.90
5059;DHT22;2548;52.050;11.036;2023-07-30T11:37:43;19.30;99.90
5059;DHT22;2548;52.050;11.036;2023-07-30T11:40:11;19.20;99.90
5059;DHT22;2548;52.050;11.036;2023-07-30T11:42:39;19.20;99.90
5059;DHT22;2548;52.050;11.036;2023-07-30T11:45:20;19.10;99.90
5059;DHT22;2548;52.050;11.036;2023-07-30T11:47:48;19.00;99.90
5059;DHT22;2548;52.050;11.036;2023-07-30T11:50:16;19.00;99.90
5059;DHT22;2548;52.050;11.036;2023-07-30T11:52:53;18.90;99.90
5059;DHT22;2548;52.050;11.036;2023-07-30T11:55:21;18.80;99.90
5059;DHT22;2548;52.050;11.036;2023-07-30T11:57:51;18.80;99.90
5059;DHT22;2548;52.050;11.036;2023-07-30T12:00:21;18.70;99.90
5059;DHT22;2548;52.050;11.036;2023-07-30T12:02:50;18.60;99.90
5059;DHT22;2548;52.050;11.036;2023-07-30T12:05:17;18.50;99.90
5059;DHT22;2548;52.050;11.036;2023-07-30T12:07:47;18.50;99.90
5059;DHT22;2548;52.050;11.036;2023-07-30T12:10:14;18.40;99.90
5059;DHT22;2548;52.050;11.036;2023-07-30T12:12:45;18.40;99.90
5059;DHT22;2548;52.050;11.036;2023-07-30T12:15:13;18.30;99.90
5059;DHT22;2548;52.050;11.036;2023-07-30T12:17:42;18.20;99.90
5059;DHT22;2548;52.050;11.036;2023-07-30T12:20:11;18.20;99.90
5059;DHT22;2548;52.050;11.036;2023-07-30T12:22:38;18.20;99.90
5059;DHT22;2548;52.050;11.036;2023-07-30T12:25:08;18.20;99.90
5059;DHT22;2548;52.050;11.036;2023-07-30T12:27:36;18.10;99.90
5059;DHT22;2548;52.050;11.036;2023-07-30T12:30:05;18.10;99.90
5059;DHT22;2548;52.050;11.036;2023-07-30T12:32:32;18.10;99.90
5059;DHT22;2548;52.050;11.036;2023-07-30T12:35:01;18.00;99.90
5059;DHT22;2548;52.050;11.036;2023-07-30T12:37:29;18.10;99.90
5059;DHT22;2548;52.050;11.036;2023-07-30T12:39:58;18.10;99.90
5059;DHT22;2548;52.050;11.036;2023-07-30T12:42:26;18.20;99.90
5059;DHT22;2548;52.050;11.036;2023-07-30T12:44:53;18.20;99.90
5059;DHT22;2548;52.050;11.036;2023-07-30T12:47:21;18.20;99.90
5059;DHT22;2548;52.050;11.036;2023-07-30T12:49:48;18.30;99.90
5059;DHT22;2548;52.050;11.036;2023-07-30T12:52:17;18.40;99.90
5059;DHT22;2548;52.050;11.036;2023-07-30T12:54:44;18.40;99.90
5059;DHT22;2548;52.050;11.036;2023-07-30T12:57:12;18.50;99.90
5059;DHT22;2548;52.050;11.036;2023-07-30T12:59:40;18.50;99.90
5059;DHT22;2548;52.050;11.036;2023-07-30T13:02:07;18.60;99.90
5059;DHT22;2548;52.050;11.036;2023-07-30T13:04:35;18.60;99.90
5059;DHT22;2548;52.050;11.036;2023-07-30T13:07:03;18.70;99.90
5059;DHT22;2548;52.050;11.036;2023-07-30T13:09:32;18.80;99.90
5059;DHT22;2548;52.050;11.036;2023-07-30T13:11:59;18.90;99.90
5059;DHT22;2548;52.050;11.036;2023-07-30T13:14:27;19.00;99.90
5059;DHT22;2548;52.050;11.036;2023-07-30T13:16:54;19.00;99.90
5059;DHT22;2548;52.050;11.036;2023-07-30T13:19:21;19.10;99.90
5059;DHT22;2548;52.050;11.036;2023-07-30T13:21:49;19.10;99.90
5059;DHT22;2548;52.050;11.036;2023-07-30T13:24:16;19.30;99.90
5059;DHT22;2548;52.050;11.036;2023-07-30T13:26:45;19.40;99.90
5059;DHT22;2548;52.050;11.036;2023-07-30T13:29:12;19.50;99.90
5059;DHT22;2548;52.050;11.036;2023-07-30T13:31:40;19.60;99.90
5059;DHT22;2548;52.050;11.036;2023-07-30T13:34:07;19.80;99.90
5059;DHT22;2548;52.050;11.036;2023-07-30T13:36:35;19.90;99.90
5059;DHT22;2548;52.050;11.036;2023-07-30T13:39:02;19.90;99.90
5059;DHT22;2548;52.050;11.036;2023-07-30T13:41:30;19.90;99.90
5059;DHT22;2548;52.050;11.036;2023-07-30T13:43:58;19.80;99.90
5059;DHT22;2548;52.050;11.036;2023-07-30T13:46:26;19.80;99.90
5059;DHT22;2548;52.050;11.036;2023-07-30T13:48:53;19.80;99.90
5059;DHT22;2548;52.050;11.036;2023-07-30T13:51:21;19.80;99.90
5059;DHT22;2548;52.050;11.036;2023-07-30T13:53:48;19.90;99.90
5059;DHT22;2548;52.050;11.036;2023-07-30T13:56:16;20.20;99.90
5059;DHT22;2548;52.050;11.036;2023-07-30T13:58:43;20.30;99.90
5059;DHT22;2548;52.050;11.036;2023-07-30T14:01:12;20.50;99.90
5059;DHT22;2548;52.050;11.036;2023-07-30T14:03:41;20.50;99.90
5059;DHT22;2548;52.050;11.036;2023-07-30T14:06:09;20.60;99.90
5059;DHT22;2548;52.050;11.036;2023-07-30T14:08:36;20.50;99.90
5059;DHT22;2548;52.050;11.036;2023-07-30T14:11:03;20.60;99.90
5059;DHT22;2548;52.050;11.036;2023-07-30T14:13:31;20.60;99.90
5059;DHT22;2548;52.050;11.036;2023-07-30T14:15:58;20.60;99.90
5059;DHT22;2548;52.050;11.036;2023-07-30T14:18:27;20.70;99.90
5059;DHT22;2548;52.050;11.036;2023-07-30T14:20:55;21.00;99.90
5059;DHT22;2548;52.050;11.036;2023-07-30T14:23:22;21.20;99.90
5059;DHT22;2548;52.050;11.036;2023-07-30T14:25:49;21.40;99.90
5059;DHT22;2548;52.050;11.036;2023-07-30T14:28:17;21.70;99.90
5059;DHT22;2548;52.050;11.036;2023-07-30T14:30:44;21.90;99.90
5059;DHT22;2548;52.050;11.036;2023-07-30T14:33:12;21.90;99.90
5059;DHT22;2548;52.050;11.036;2023-07-30T14:35:40;22.00;99.90
5059;DHT22;2548;52.050;11.036;2023-07-30T14:38:08;22.00;99.90
5059;DHT22;2548;52.050;11.036;2023-07-30T14:40:36;22.10;99.90
5059;DHT22;2548;52.050;11.036;2023-07-30T14:43:03;22.20;99.90
5059;DHT22;2548;52.050;11.036;2023-07-30T14:45:31;22.10;99.90
5059;DHT22;2548;52.050;11.036;2023-07-30T14:47:58;22.20;99.90
5059;DHT22;2548;52.050;11.036;2023-07-30T14:50:25;22.60;99.90
5059;DHT22;2548;52.050;11.036;2023-07-30T14:52:54;22.70;99.90
5059;DHT22;2548;52.050;11.036;2023-07-30T14:55:22;22.80;99.90
5059;DHT22;2548;52.050;11.036;2023-07-30T14:57:49;22.90;99.90
5059;DHT22;2548;52.050;11.036;2023-07-30T15:00:17;23.00;99.90
5059;DHT22;2548;52.050;11.036;2023-07-30T15:02:44;23.20;99.90
5059;DHT22;2548;52.050;11.036;2023-07-30T15:05:11;23.10;99.90
5059;DHT22;2548;52.050;11.036;2023-07-30T15:07:39;23.10;99.90
5059;DHT22;2548;52.050;11.036;2023-07-30T15:10:08;23.10;99.90
5059;DHT22;2548;52.050;11.036;2023-07-30T15:12:36;22.80;99.90
5059;DHT22;2548;52.050;11.036;2023-07-30T15:15:05;22.80;99.90
5059;DHT22;2548;52.050;11.036;2023-07-30T15:17:34;23.00;99.90
5059;DHT22;2548;52.050;11.036;2023-07-30T15:20:01;23.00;99.90
5059;DHT22;2548;52.050;11.036;2023-07-30T15:22:29;23.00;99.90
5059;DHT22;2548;52.050;11.036;2023-07-30T15:24:56;23.10;99.90
5059;DHT22;2548;52.050;11.036;2023-07-30T15:27:25;23.30;99.90
5059;DHT22;2548;52.050;11.036;2023-07-30T15:29:52;23.30;99.90
5059;DHT22;2548;52.050;11.036;2023-07-30T15:32:20;23.30;99.90
5059;DHT22;2548;52.050;11.036;2023-07-30T15:34:48;23.30;99.90
5059;DHT22;2548;52.050;11.036;2023-07-30T15:37:16;23.30;99.90
5059;DHT22;2548;52.050;11.036;2023-07-30T15:39:43;23.40;99.90
5059;DHT22;2548;52.050;11.036;2023-07-30T15:42:10;23.60;99.90
5059;DHT22;2548;52.050;11.036;2023-07-30T15:44:40;23.80;99.90
5059;DHT22;2548;52.050;11.036;2023-07-30T15:47:07;23.70;99.90
5059;DHT22;2548;52.050;11.036;2023-07-30T15:49:35;23.80;99.90
5059;DHT22;2548;52.050;11.036;2023-07-30T15:52:03;23.60;99.90